sensor_id;sensor_type;location;lat;lon;timestamp;temperature;humidity
10282;DHT22;5186;59.472;18.048;2022-11-20T00:00:45;1.90;99.90
10282;DHT22;5186;59.472;18.048;2022-11-20T00:03:11;1.90;99.90
10282;DHT22;5186;59.472;18.048;2022-11-20T00:05:36;1.90;99.90
10282;DHT22;5186;59.472;18.048;2022-11-20T00:08:02;2.00;99.90
10282;DHT22;5186;59.472;18.048;2022-11-20T00:10:27;1.90;99.90
10282;DHT22;5186;59.472;18.048;2022-11-20T00:12:53;1.90;99.90
10282;DHT22;5186;59.472;18.048;2022-11-20T00:15:18;1.90;99.90
10282;DHT22;5186;59.472;18.048;2022-11-20T00:17:44;1.90;99.90
10282;DHT22;5186;59.472;18.048;2022-11-20T00:20:10;1.90;99.90
10282;DHT22;5186;59.472;18.048;2022-11-20T00:22:36;1.90;99.90
10282;DHT22;5186;59.472;18.048;2022-11-20T00:25:02;2.00;99.90
10282;DHT22;5186;59.472;18.048;2022-11-20T00:27:27;1.90;99.90
10282;DHT22;5186;59.472;18.048;2022-11-20T00:29:53;1.90;99.90
10282;DHT22;5186;59.472;18.048;2022-11-20T00:32:18;1.90;99.90
10282;DHT22;5186;59.472;18.048;2022-11-20T00:34:44;1.90;99.90
10282;DHT22;5186;59.472;18.048;2022-11-20T00:37:10;1.90;99.90
10282;DHT22;5186;59.472;18.048;2022-11-20T00:39:35;1.90;99.90
10282;DHT22;5186;59.472;18.048;2022-11-20T00:42:01;1.90;99.90
10282;DHT22;5186;59.472;18.048;2022-11-20T00:44:26;1.90;99.90
10282;DHT22;5186;59.472;18.048;2022-11-20T00:46:52;1.90;99.90
10282;DHT22;5186;59.472;18.048;2022-11-20T00:49:17;1.90;99.90
10282;DHT22;5186;59.472;18.048;2022-11-20T00:51:43;1.90;99.90
10282;DHT22;5186;59.472;18.048;2022-11-20T00:54:08;1.90;99.90
10282;DHT22;5186;59.472;18.048;2022-11-20T00:56:34;1.90;99.90
10282;DHT22;5186;59.472;18.048;2022-11-20T00:59:00;1.90;99.90
10282;DHT22;5186;59.472;18.048;2022-11-20T01:01:29;1.90;99.90
10282;DHT22;5186;59.472;18.048;2022-11-20T01:03:57;1.90;99.90
10282;DHT22;5186;59.472;18.048;2022-11-20T01:06:25;1.90;99.90
10282;DHT22;5186;59.472;18.048;2022-11-20T01:08:53;1.90;99.90
10282;DHT22;5186;59.472;18.048;2022-11-20T01:11:22;1.90;99.90
10282;DHT22;5186;59.472;18.048;2022-11-20T01:13:49;1.90;99.90
10282;DHT22;5186;59.472;18.048;2022-11-20T01:16:19;1.90;99.90
10282;DHT22;5186;59.472;18.048;2022-11-20T01:18:47;1.90;99.90
10282;DHT22;5186;59.472;18.048;2022-11-20T01:23:44;1.90;99.90
10282;DHT22;5186;59.472;18.048;2022-11-20T01:26:12;1.90;99.90
10282;DHT22;5186;59.472;18.048;2022-11-20T01:28:38;1.80;99.90
10282;DHT22;5186;59.472;18.048;2022-11-20T01:31:15;1.80;99.90
10282;DHT22;5186;59.472;18.048;2022-11-20T01:33:42;1.80;99.90
10282;DHT22;5186;59.472;18.048;2022-11-20T01:36:09;1.80;99.90
10282;DHT22;5186;59.472;18.048;2022-11-20T01:38:35;1.80;99.90
10282;DHT22;5186;59.472;18.048;2022-11-20T01:41:01;1.80;99.90
10282;DHT22;5186;59.472;18.048;2022-11-20T01:43:27;1.80;99.90
10282;DHT22;5186;59.472;18.048;2022-11-20T01:45:58;1.80;99.90
10282;DHT22;5186;59.472;18.048;2022-11-20T01:48:32;1.80;99.90
10282;DHT22;5186;59.472;18.048;2022-11-20T01:50:58;1.80;99.90
10282;DHT22;5186;59.472;18.048;2022-11-20T01:53:29;1.80;99.90
10282;DHT22;5186;59.472;18.048;2022-11-20T01:55:57;1.80;99.90
10282;DHT22;5186;59.472;18.048;2022-11-20T01:58:31;1.80;99.90
10282;DHT22;5186;59.472;18.048;2022-11-20T02:00:57;1.70;99.90
10282;DHT22;5186;59.472;18.048;2022-11-20T02:03:23;1.80;99.90
10282;DHT22;5186;59.472;18.048;2022-11-20T02:05:51;1.80;99.90
10282;DHT22;5186;59.472;18.048;2022-11-20T02:08:18;1.80;99.90
10282;DHT22;5186;59.472;18.048;2022-11-20T02:10:44;1.80;99.90
10282;DHT22;5186;59.472;18.048;2022-11-20T02:13:10;1.80;99.90
10282;DHT22;5186;59.472;18.048;2022-11-20T02:15:54;1.70;99.90
10282;DHT22;5186;59.472;18.048;2022-11-20T02:18:21;1.80;99.90
10282;DHT22;5186;59.472;18.048;2022-11-20T02:20:50;1.70;99.90
10282;DHT22;5186;59.472;18.048;2022-11-20T02:23:32;1.70;99.90
10282;DHT22;5186;59.472;18.048;2022-11-20T02:26:01;1.70;99.90
10282;DHT22;5186;59.472;18.048;2022-11-20T02:28:28;1.70;99.90
10282;DHT22;5186;59.472;18.048;2022-11-20T02:30:54;1.70;99.90
10282;DHT22;5186;59.472;18.048;2022-11-20T02:33:19;1.70;99.90
10282;DHT22;5186;59.472;18.048;2022-11-20T02:35:46;1.70;99.90
10282;DHT22;5186;59.472;18.048;2022-11-20T02:38:13;1.60;99.90
10282;DHT22;5186;59.472;18.048;2022-11-20T02:40:39;1.70;99.90
10282;DHT22;5186;59.472;18.048;2022-11-20T02:43:05;1.70;99.90
10282;DHT22;5186;59.472;18.048;2022-11-20T02:45:31;1.70;99.90
10282;DHT22;5186;59.472;18.048;2022-11-20T02:47:57;1.70;99.90
10282;DHT22;5186;59.472;18.048;2022-11-20T02:50:22;1.70;99.90
10282;DHT22;5186;59.472;18.048;2022-11-20T02:52:48;1.70;99.90
10282;DHT22;5186;59.472;18.048;2022-11-20T02:55:14;1.70;99.90
10282;DHT22;5186;59.472;18.048;2022-11-20T02:57:39;1.70;99.90
10282;DHT22;5186;59.472;18.048;2022-11-20T03:00:05;1.70;99.90
10282;DHT22;5186;59.472;18.048;2022-11-20T03:02:32;1.70;99.90
10282;DHT22;5186;59.472;18.048;2022-11-20T03:04:58;1.70;99.90
10282;DHT22;5186;59.472;18.048;2022-11-20T03:07:24;1.70;99.90
10282;DHT22;5186;59.472;18.048;2022-11-20T03:09:50;1.60;99.90
10282;DHT22;5186;59.472;18.048;2022-11-20T03:12:15;1.70;99.90
10282;DHT22;5186;59.472;18.048;2022-11-20T03:14:41;1.60;99.90
10282;DHT22;5186;59.472;18.048;2022-11-20T03:17:07;1.70;99.90
10282;DHT22;5186;59.472;18.048;2022-11-20T03:19:32;1.60;99.90
10282;DHT22;5186;59.472;18.048;2022-11-20T03:21:59;1.70;99.90
10282;DHT22;5186;59.472;18.048;2022-11-20T03:24:25;1.70;99.90
10282;DHT22;5186;59.472;18.048;2022-11-20T03:26:51;1.60;99.90
10282;DHT22;5186;59.472;18.048;2022-11-20T03:29:17;1.60;99.90
10282;DHT22;5186;59.472;18.048;2022-11-20T03:31:42;1.60;99.90
10282;DHT22;5186;59.472;18.048;2022-11-20T03:34:09;1.60;99.90
10282;DHT22;5186;59.472;18.048;2022-11-20T03:36:40;1.50;99.90
10282;DHT22;5186;59.472;18.048;2022-11-20T03:39:07;1.60;99.90
10282;DHT22;5186;59.472;18.048;2022-11-20T03:41:37;1.60;99.90
10282;DHT22;5186;59.472;18.048;2022-11-20T03:44:04;1.50;99.90
10282;DHT22;5186;59.472;18.048;2022-11-20T03:46:30;1.50;99.90
10282;DHT22;5186;59.472;18.048;2022-11-20T03:48:56;1.50;99.90
10282;DHT22;5186;59.472;18.048;2022-11-20T03:51:27;1.50;99.90
10282;DHT22;5186;59.472;18.048;2022-11-20T03:53:54;1.50;99.90
10282;DHT22;5186;59.472;18.048;2022-11-20T03:56:24;1.50;99.90
10282;DHT22;5186;59.472;18.048;2022-11-20T03:58:50;1.50;99.90
10282;DHT22;5186;59.472;18.048;2022-11-20T04:01:21;1.50;99.90
10282;DHT22;5186;59.472;18.048;2022-11-20T04:03:48;1.50;99.90
10282;DHT22;5186;59.472;18.048;2022-11-20T04:06:19;1.50;99.90
10282;DHT22;5186;59.472;18.048;2022-11-20T04:08:45;1.50;99.90
10282;DHT22;5186;59.472;18.048;2022-11-20T04:11:21;1.50;99.90
10282;DHT22;5186;59.472;18.048;2022-11-20T04:13:52;1.50;99.90
10282;DHT22;5186;59.472;18.048;2022-11-20T04:16:18;1.40;99.90
10282;DHT22;5186;59.472;18.048;2022-11-20T04:18:44;1.50;99.90
10282;DHT22;5186;59.472;18.048;2022-11-20T04:21:10;1.40;99.90
10282;DHT22;5186;59.472;18.048;2022-11-20T04:23:36;1.50;99.90
10282;DHT22;5186;59.472;18.048;2022-11-20T04:26:09;1.40;99.90
10282;DHT22;5186;59.472;18.048;2022-11-20T04:28:35;1.50;99.90
10282;DHT22;5186;59.472;18.048;2022-11-20T04:31:13;1.50;99.90
10282;DHT22;5186;59.472;18.048;2022-11-20T04:33:39;1.40;99.90
10282;DHT22;5186;59.472;18.048;2022-11-20T04:36:29;1.40;99.90
10282;DHT22;5186;59.472;18.048;2022-11-20T04:38:57;1.40;99.90
10282;DHT22;5186;59.472;18.048;2022-11-20T04:41:25;1.40;99.90
10282;DHT22;5186;59.472;18.048;2022-11-20T04:43:54;1.40;99.90
10282;DHT22;5186;59.472;18.048;2022-11-20T04:46:25;1.40;99.90
10282;DHT22;5186;59.472;18.048;2022-11-20T04:48:51;1.50;99.90
10282;DHT22;5186;59.472;18.048;2022-11-20T04:51:16;1.40;99.90
10282;DHT22;5186;59.472;18.048;2022-11-20T04:53:42;1.50;99.90
10282;DHT22;5186;59.472;18.048;2022-11-20T04:56:10;1.50;99.90
10282;DHT22;5186;59.472;18.048;2022-11-20T04:58:36;1.50;99.90
10282;DHT22;5186;59.472;18.048;2022-11-20T05:01:03;1.50;99.90
10282;DHT22;5186;59.472;18.048;2022-11-20T05:03:29;1.50;99.90
10282;DHT22;5186;59.472;18.048;2022-11-20T05:05:55;1.50;99.90
10282;DHT22;5186;59.472;18.048;2022-11-20T05:08:20;1.50;99.90
10282;DHT22;5186;59.472;18.048;2022-11-20T05:10:46;1.50;99.90
10282;DHT22;5186;59.472;18.048;2022-11-20T05:13:12;1.50;99.90
10282;DHT22;5186;59.472;18.048;2022-11-20T05:15:37;1.50;99.90
10282;DHT22;5186;59.472;18.048;2022-11-20T05:18:03;1.50;99.90
10282;DHT22;5186;59.472;18.048;2022-11-20T05:20:29;1.50;99.90
10282;DHT22;5186;59.472;18.048;2022-11-20T05:22:57;1.50;99.90
10282;DHT22;5186;59.472;18.048;2022-11-20T05:25:22;1.50;99.90
10282;DHT22;5186;59.472;18.048;2022-11-20T05:27:48;1.50;99.90
10282;DHT22;5186;59.472;18.048;2022-11-20T05:30:14;1.50;99.90
10282;DHT22;5186;59.472;18.048;2022-11-20T05:32:40;1.50;99.90
10282;DHT22;5186;59.472;18.048;2022-11-20T05:35:06;1.50;99.90
10282;DHT22;5186;59.472;18.048;2022-11-20T05:37:32;1.50;99.90
10282;DHT22;5186;59.472;18.048;2022-11-20T05:39:57;1.50;99.90
10282;DHT22;5186;59.472;18.048;2022-11-20T05:42:23;1.50;99.90
10282;DHT22;5186;59.472;18.048;2022-11-20T05:45:03;1.50;99.90
10282;DHT22;5186;59.472;18.048;2022-11-20T05:47:32;1.50;99.90
10282;DHT22;5186;59.472;18.048;2022-11-20T05:49:58;1.50;99.90
10282;DHT22;5186;59.472;18.048;2022-11-20T05:52:23;1.50;99.90
10282;DHT22;5186;59.472;18.048;2022-11-20T05:54:49;1.50;99.90
10282;DHT22;5186;59.472;18.048;2022-11-20T05:57:15;1.50;99.90
10282;DHT22;5186;59.472;18.048;2022-11-20T05:59:40;1.50;99.90
10282;DHT22;5186;59.472;18.048;2022-11-20T06:02:06;1.50;99.90
10282;DHT22;5186;59.472;18.048;2022-11-20T06:04:31;1.60;99.90
10282;DHT22;5186;59.472;18.048;2022-11-20T06:06:57;1.60;99.90
10282;DHT22;5186;59.472;18.048;2022-11-20T06:09:22;1.60;99.90
10282;DHT22;5186;59.472;18.048;2022-11-20T06:11:48;1.60;99.90
10282;DHT22;5186;59.472;18.048;2022-11-20T06:14:14;1.60;99.90
10282;DHT22;5186;59.472;18.048;2022-11-20T06:16:39;1.60;99.90
10282;DHT22;5186;59.472;18.048;2022-11-20T06:19:05;1.60;99.90
10282;DHT22;5186;59.472;18.048;2022-11-20T06:21:30;1.60;99.90
10282;DHT22;5186;59.472;18.048;2022-11-20T06:23:56;1.60;99.90
10282;DHT22;5186;59.472;18.048;2022-11-20T06:26:26;1.60;99.90
10282;DHT22;5186;59.472;18.048;2022-11-20T06:28:53;1.60;99.90
10282;DHT22;5186;59.472;18.048;2022-11-20T06:31:21;1.60;99.90
10282;DHT22;5186;59.472;18.048;2022-11-20T06:33:47;1.60;99.90
10282;DHT22;5186;59.472;18.048;2022-11-20T06:36:15;1.60;99.90
10282;DHT22;5186;59.472;18.048;2022-11-20T06:38:41;1.60;99.90
10282;DHT22;5186;59.472;18.048;2022-11-20T06:41:10;1.60;99.90
10282;DHT22;5186;59.472;18.048;2022-11-20T06:43:37;1.60;99.90
10282;DHT22;5186;59.472;18.048;2022-11-20T06:46:02;1.60;99.90
10282;DHT22;5186;59.472;18.048;2022-11-20T06:48:29;1.60;99.90
10282;DHT22;5186;59.472;18.048;2022-11-20T06:50:55;1.60;99.90
10282;DHT22;5186;59.472;18.048;2022-11-20T06:53:22;1.60;99.90
10282;DHT22;5186;59.472;18.048;2022-11-20T06:55:49;1.60;99.90
10282;DHT22;5186;59.472;18.048;2022-11-20T06:58:15;1.60;99.90
10282;DHT22;5186;59.472;18.048;2022-11-20T07:00:42;1.60;99.90
10282;DHT22;5186;59.472;18.048;2022-11-20T07:03:09;1.60;99.90
10282;DHT22;5186;59.472;18.048;2022-11-20T07:05:35;1.60;99.90
10282;DHT22;5186;59.472;18.048;2022-11-20T07:08:02;1.60;99.90
10282;DHT22;5186;59.472;18.048;2022-11-20T07:10:27;1.60;99.90
10282;DHT22;5186;59.472;18.048;2022-11-20T07:12:53;1.60;99.90
10282;DHT22;5186;59.472;18.048;2022-11-20T07:15:21;1.60;99.90
10282;DHT22;5186;59.472;18.048;2022-11-20T07:17:47;1.60;99.90
10282;DHT22;5186;59.472;18.048;2022-11-20T07:20:13;1.60;99.90
10282;DHT22;5186;59.472;18.048;2022-11-20T07:22:39;1.60;99.90
10282;DHT22;5186;59.472;18.048;2022-11-20T07:25:05;1.60;99.90
10282;DHT22;5186;59.472;18.048;2022-11-20T07:27:31;1.60;99.90
10282;DHT22;5186;59.472;18.048;2022-11-20T07:29:57;1.60;99.90
10282;DHT22;5186;59.472;18.048;2022-11-20T07:32:23;1.60;99.90
10282;DHT22;5186;59.472;18.048;2022-11-20T07:34:49;1.60;99.90
10282;DHT22;5186;59.472;18.048;2022-11-20T07:37:15;1.60;99.90
10282;DHT22;5186;59.472;18.048;2022-11-20T07:39:41;1.70;99.90
10282;DHT22;5186;59.472;18.048;2022-11-20T07:42:07;1.70;99.90
10282;DHT22;5186;59.472;18.048;2022-11-20T07:44:33;1.70;99.90
10282;DHT22;5186;59.472;18.048;2022-11-20T07:46:58;1.70;99.90
10282;DHT22;5186;59.472;18.048;2022-11-20T07:49:24;1.70;99.90
10282;DHT22;5186;59.472;18.048;2022-11-20T07:51:52;1.70;99.90
10282;DHT22;5186;59.472;18.048;2022-11-20T07:54:22;1.70;99.90
10282;DHT22;5186;59.472;18.048;2022-11-20T07:56:48;1.70;99.90
10282;DHT22;5186;59.472;18.048;2022-11-20T07:59:15;1.80;99.90
10282;DHT22;5186;59.472;18.048;2022-11-20T08:01:43;1.70;99.90
10282;DHT22;5186;59.472;18.048;2022-11-20T08:04:09;1.80;99.90
10282;DHT22;5186;59.472;18.048;2022-11-20T08:06:36;1.80;99.90
10282;DHT22;5186;59.472;18.048;2022-11-20T08:09:02;1.80;99.90
10282;DHT22;5186;59.472;18.048;2022-11-20T08:11:27;1.80;99.90
10282;DHT22;5186;59.472;18.048;2022-11-20T08:14:11;1.80;99.90
10282;DHT22;5186;59.472;18.048;2022-11-20T08:16:38;1.80;99.90
10282;DHT22;5186;59.472;18.048;2022-11-20T08:19:04;1.90;99.90
10282;DHT22;5186;59.472;18.048;2022-11-20T08:21:30;1.90;99.90
10282;DHT22;5186;59.472;18.048;2022-11-20T08:23:57;1.90;99.90
10282;DHT22;5186;59.472;18.048;2022-11-20T08:26:23;1.90;99.90
10282;DHT22;5186;59.472;18.048;2022-11-20T08:28:49;2.00;99.90
10282;DHT22;5186;59.472;18.048;2022-11-20T08:31:14;1.90;99.90
10282;DHT22;5186;59.472;18.048;2022-11-20T08:33:40;2.00;99.90
10282;DHT22;5186;59.472;18.048;2022-11-20T08:36:06;2.00;99.90
10282;DHT22;5186;59.472;18.048;2022-11-20T08:38:32;2.00;99.90
10282;DHT22;5186;59.472;18.048;2022-11-20T08:41:03;2.00;99.90
10282;DHT22;5186;59.472;18.048;2022-11-20T08:43:48;2.00;99.90
10282;DHT22;5186;59.472;18.048;2022-11-20T08:46:13;2.00;99.90
10282;DHT22;5186;59.472;18.048;2022-11-20T08:48:39;2.10;99.90
10282;DHT22;5186;59.472;18.048;2022-11-20T08:51:05;2.10;99.90
10282;DHT22;5186;59.472;18.048;2022-11-20T08:53:31;2.10;99.90
10282;DHT22;5186;59.472;18.048;2022-11-20T08:55:57;2.10;99.90
10282;DHT22;5186;59.472;18.048;2022-11-20T08:58:24;2.10;99.90
10282;DHT22;5186;59.472;18.048;2022-11-20T09:00:49;2.20;99.90
10282;DHT22;5186;59.472;18.048;2022-11-20T09:03:15;2.20;99.90
10282;DHT22;5186;59.472;18.048;2022-11-20T09:05:40;2.20;99.90
10282;DHT22;5186;59.472;18.048;2022-11-20T09:08:06;2.20;99.90
10282;DHT22;5186;59.472;18.048;2022-11-20T09:10:31;2.20;99.90
10282;DHT22;5186;59.472;18.048;2022-11-20T09:12:57;2.20;99.90
10282;DHT22;5186;59.472;18.048;2022-11-20T09:15:24;2.20;99.90
10282;DHT22;5186;59.472;18.048;2022-11-20T09:17:54;2.20;99.90
10282;DHT22;5186;59.472;18.048;2022-11-20T09:20:20;2.20;99.90
10282;DHT22;5186;59.472;18.048;2022-11-20T09:22:45;2.20;99.90
10282;DHT22;5186;59.472;18.048;2022-11-20T09:25:11;2.20;99.90
10282;DHT22;5186;59.472;18.048;2022-11-20T09:27:37;2.30;99.90
10282;DHT22;5186;59.472;18.048;2022-11-20T09:30:04;2.30;99.90
10282;DHT22;5186;59.472;18.048;2022-11-20T09:32:29;2.30;99.90
10282;DHT22;5186;59.472;18.048;2022-11-20T09:34:55;2.40;99.90
10282;DHT22;5186;59.472;18.048;2022-11-20T09:37:21;2.30;99.90
10282;DHT22;5186;59.472;18.048;2022-11-20T09:39:46;2.30;99.90
10282;DHT22;5186;59.472;18.048;2022-11-20T09:42:41;2.40;99.90
10282;DHT22;5186;59.472;18.048;2022-11-20T09:54:17;2.30;99.90
10282;DHT22;5186;59.472;18.048;2022-11-20T09:56:56;2.40;99.90
10282;DHT22;5186;59.472;18.048;2022-11-20T10:02:08;2.30;99.90
10282;DHT22;5186;59.472;18.048;2022-11-20T10:04:44;2.30;99.90
10282;DHT22;5186;59.472;18.048;2022-11-20T10:07:17;2.30;99.90
10282;DHT22;5186;59.472;18.048;2022-11-20T10:09:56;2.30;99.90
10282;DHT22;5186;59.472;18.048;2022-11-20T10:15:34;2.30;99.90
10282;DHT22;5186;59.472;18.048;2022-11-20T10:23:44;2.30;99.90
10282;DHT22;5186;59.472;18.048;2022-11-20T10:29:10;2.30;99.90
10282;DHT22;5186;59.472;18.048;2022-11-20T10:31:42;2.30;99.90
10282;DHT22;5186;59.472;18.048;2022-11-20T10:34:23;2.30;99.90
10282;DHT22;5186;59.472;18.048;2022-11-20T10:36:56;2.30;99.90
10282;DHT22;5186;59.472;18.048;2022-11-20T10:42:16;2.40;99.90
10282;DHT22;5186;59.472;18.048;2022-11-20T10:44:49;2.30;99.90
10282;DHT22;5186;59.472;18.048;2022-11-20T10:47:28;2.30;99.90
10282;DHT22;5186;59.472;18.048;2022-11-20T10:49:57;2.40;99.90
10282;DHT22;5186;59.472;18.048;2022-11-20T10:55:33;2.40;99.90
10282;DHT22;5186;59.472;18.048;2022-11-20T11:00:36;2.40;99.90
10282;DHT22;5186;59.472;18.048;2022-11-20T11:03:02;2.40;99.90
10282;DHT22;5186;59.472;18.048;2022-11-20T11:08:21;2.40;99.90
10282;DHT22;5186;59.472;18.048;2022-11-20T11:10:53;2.40;99.90
10282;DHT22;5186;59.472;18.048;2022-11-20T11:13:22;2.40;99.90
10282;DHT22;5186;59.472;18.048;2022-11-20T11:15:49;2.50;99.90
10282;DHT22;5186;59.472;18.048;2022-11-20T11:18:29;2.50;99.90
10282;DHT22;5186;59.472;18.048;2022-11-20T11:20:56;2.50;99.90
10282;DHT22;5186;59.472;18.048;2022-11-20T11:23:34;2.50;99.90
10282;DHT22;5186;59.472;18.048;2022-11-20T11:26:01;2.50;99.90
10282;DHT22;5186;59.472;18.048;2022-11-20T11:28:27;2.50;99.90
10282;DHT22;5186;59.472;18.048;2022-11-20T11:30:54;2.50;99.90
10282;DHT22;5186;59.472;18.048;2022-11-20T11:35:53;2.50;99.90
10282;DHT22;5186;59.472;18.048;2022-11-20T11:38:28;2.50;99.90
10282;DHT22;5186;59.472;18.048;2022-11-20T11:40:56;2.50;99.90
10282;DHT22;5186;59.472;18.048;2022-11-20T11:43:25;2.50;99.90
10282;DHT22;5186;59.472;18.048;2022-11-20T11:46:33;2.50;99.90
10282;DHT22;5186;59.472;18.048;2022-11-20T11:54:04;2.40;99.90
10282;DHT22;5186;59.472;18.048;2022-11-20T11:56:32;2.50;99.90
10282;DHT22;5186;59.472;18.048;2022-11-20T11:59:00;2.50;99.90
10282;DHT22;5186;59.472;18.048;2022-11-20T12:01:55;2.50;99.90
10282;DHT22;5186;59.472;18.048;2022-11-20T12:05:03;2.50;99.90
10282;DHT22;5186;59.472;18.048;2022-11-20T12:10:02;2.50;99.90
10282;DHT22;5186;59.472;18.048;2022-11-20T12:12:36;2.50;99.90
10282;DHT22;5186;59.472;18.048;2022-11-20T12:15:06;2.40;99.90
10282;DHT22;5186;59.472;18.048;2022-11-20T12:17:34;2.40;99.90
10282;DHT22;5186;59.472;18.048;2022-11-20T12:20:00;2.40;99.90
10282;DHT22;5186;59.472;18.048;2022-11-20T12:25:24;2.40;99.90
10282;DHT22;5186;59.472;18.048;2022-11-20T12:30:25;2.40;99.90
10282;DHT22;5186;59.472;18.048;2022-11-20T12:36:45;2.30;99.90
10282;DHT22;5186;59.472;18.048;2022-11-20T12:38:59;2.30;99.90
10282;DHT22;5186;59.472;18.048;2022-11-20T12:52:56;2.30;99.90
10282;DHT22;5186;59.472;18.048;2022-11-20T13:00:54;2.20;99.90
10282;DHT22;5186;59.472;18.048;2022-11-20T13:06:18;2.20;99.90
10282;DHT22;5186;59.472;18.048;2022-11-20T13:08:56;2.10;99.90
10282;DHT22;5186;59.472;18.048;2022-11-20T13:11:41;2.20;99.90
10282;DHT22;5186;59.472;18.048;2022-11-20T13:14:12;2.20;99.90
10282;DHT22;5186;59.472;18.048;2022-11-20T13:16:50;2.20;99.90
10282;DHT22;5186;59.472;18.048;2022-11-20T13:19:17;2.20;99.90
10282;DHT22;5186;59.472;18.048;2022-11-20T13:21:46;2.20;99.90
10282;DHT22;5186;59.472;18.048;2022-11-20T13:29:43;2.20;99.90
10282;DHT22;5186;59.472;18.048;2022-11-20T13:32:20;2.20;99.90
10282;DHT22;5186;59.472;18.048;2022-11-20T13:34:56;2.20;99.90
10282;DHT22;5186;59.472;18.048;2022-11-20T13:37:39;2.10;99.90
10282;DHT22;5186;59.472;18.048;2022-11-20T13:42:45;2.20;99.90
10282;DHT22;5186;59.472;18.048;2022-11-20T13:45:25;2.20;99.90
10282;DHT22;5186;59.472;18.048;2022-11-20T13:47:52;2.20;99.90
10282;DHT22;5186;59.472;18.048;2022-11-20T13:50:19;2.20;99.90
10282;DHT22;5186;59.472;18.048;2022-11-20T13:55:54;2.30;99.90
10282;DHT22;5186;59.472;18.048;2022-11-20T14:00:56;2.30;99.90
10282;DHT22;5186;59.472;18.048;2022-11-20T14:03:23;2.30;99.90
10282;DHT22;5186;59.472;18.048;2022-11-20T14:05:54;2.20;99.90
10282;DHT22;5186;59.472;18.048;2022-11-20T14:11:15;2.10;99.90
10282;DHT22;5186;59.472;18.048;2022-11-20T14:16:33;2.10;99.90
10282;DHT22;5186;59.472;18.048;2022-11-20T14:19:32;2.10;99.90
10282;DHT22;5186;59.472;18.048;2022-11-20T14:24:34;2.10;99.90
10282;DHT22;5186;59.472;18.048;2022-11-20T14:27:00;2.10;99.90
10282;DHT22;5186;59.472;18.048;2022-11-20T14:29:33;2.00;99.90
10282;DHT22;5186;59.472;18.048;2022-11-20T14:32:01;2.00;99.90
10282;DHT22;5186;59.472;18.048;2022-11-20T14:34:30;2.00;99.90
10282;DHT22;5186;59.472;18.048;2022-11-20T14:36:58;2.10;99.90
10282;DHT22;5186;59.472;18.048;2022-11-20T14:41:54;2.00;99.90
10282;DHT22;5186;59.472;18.048;2022-11-20T14:44:25;2.00;99.90
10282;DHT22;5186;59.472;18.048;2022-11-20T14:46:52;1.90;99.90
10282;DHT22;5186;59.472;18.048;2022-11-20T14:49:18;2.00;99.90
10282;DHT22;5186;59.472;18.048;2022-11-20T14:51:43;1.90;99.90
10282;DHT22;5186;59.472;18.048;2022-11-20T14:54:14;1.90;99.90
10282;DHT22;5186;59.472;18.048;2022-11-20T14:56:41;1.90;99.90
10282;DHT22;5186;59.472;18.048;2022-11-20T14:59:08;1.80;99.90
10282;DHT22;5186;59.472;18.048;2022-11-20T15:01:34;1.80;99.90
10282;DHT22;5186;59.472;18.048;2022-11-20T15:04:10;1.90;99.90
10282;DHT22;5186;59.472;18.048;2022-11-20T15:06:37;1.80;99.90
10282;DHT22;5186;59.472;18.048;2022-11-20T15:09:13;1.80;99.90
10282;DHT22;5186;59.472;18.048;2022-11-20T15:11:57;1.70;99.90
10282;DHT22;5186;59.472;18.048;2022-11-20T15:14:25;1.70;99.90
10282;DHT22;5186;59.472;18.048;2022-11-20T15:16:52;1.70;99.90
10282;DHT22;5186;59.472;18.048;2022-11-20T15:19:26;1.70;99.90
10282;DHT22;5186;59.472;18.048;2022-11-20T15:21:53;1.60;99.90
10282;DHT22;5186;59.472;18.048;2022-11-20T15:24:19;1.60;99.90
10282;DHT22;5186;59.472;18.048;2022-11-20T15:26:44;1.70;99.90
10282;DHT22;5186;59.472;18.048;2022-11-20T15:29:15;1.70;99.90
10282;DHT22;5186;59.472;18.048;2022-11-20T15:31:44;1.70;99.90
10282;DHT22;5186;59.472;18.048;2022-11-20T15:34:14;1.60;99.90
10282;DHT22;5186;59.472;18.048;2022-11-20T15:36:41;1.60;99.90
10282;DHT22;5186;59.472;18.048;2022-11-20T15:39:08;1.60;99.90
10282;DHT22;5186;59.472;18.048;2022-11-20T15:41:35;1.50;99.90
10282;DHT22;5186;59.472;18.048;2022-11-20T15:44:01;1.60;99.90
10282;DHT22;5186;59.472;18.048;2022-11-20T15:46:29;1.50;99.90
10282;DHT22;5186;59.472;18.048;2022-11-20T15:48:56;1.50;99.90
10282;DHT22;5186;59.472;18.048;2022-11-20T15:51:36;1.50;99.90
10282;DHT22;5186;59.472;18.048;2022-11-20T15:54:17;1.50;99.90
10282;DHT22;5186;59.472;18.048;2022-11-20T15:56:43;1.50;99.90
10282;DHT22;5186;59.472;18.048;2022-11-20T15:59:09;1.50;99.90
10282;DHT22;5186;59.472;18.048;2022-11-20T16:01:35;1.50;99.90
10282;DHT22;5186;59.472;18.048;2022-11-20T16:04:01;1.40;99.90
10282;DHT22;5186;59.472;18.048;2022-11-20T16:06:27;1.40;99.90
10282;DHT22;5186;59.472;18.048;2022-11-20T16:08:52;1.40;99.90
10282;DHT22;5186;59.472;18.048;2022-11-20T16:11:18;1.30;99.90
10282;DHT22;5186;59.472;18.048;2022-11-20T16:13:44;1.30;99.90
10282;DHT22;5186;59.472;18.048;2022-11-20T16:16:30;1.40;99.90
10282;DHT22;5186;59.472;18.048;2022-11-20T16:18:57;1.30;99.90
10282;DHT22;5186;59.472;18.048;2022-11-20T16:21:23;1.30;99.90
10282;DHT22;5186;59.472;18.048;2022-11-20T16:23:59;1.30;99.90
10282;DHT22;5186;59.472;18.048;2022-11-20T16:26:25;1.30;99.90
10282;DHT22;5186;59.472;18.048;2022-11-20T16:28:50;1.30;99.90
10282;DHT22;5186;59.472;18.048;2022-11-20T16:31:17;1.20;99.90
10282;DHT22;5186;59.472;18.048;2022-11-20T16:33:49;1.20;99.90
10282;DHT22;5186;59.472;18.048;2022-11-20T16:36:16;1.20;99.90
10282;DHT22;5186;59.472;18.048;2022-11-20T16:38:41;1.20;99.90
10282;DHT22;5186;59.472;18.048;2022-11-20T16:41:08;1.20;99.90
10282;DHT22;5186;59.472;18.048;2022-11-20T16:43:51;1.20;99.90
10282;DHT22;5186;59.472;18.048;2022-11-20T16:46:18;1.20;99.90
10282;DHT22;5186;59.472;18.048;2022-11-20T16:48:45;1.20;99.90
10282;DHT22;5186;59.472;18.048;2022-11-20T16:51:12;1.10;99.90
10282;DHT22;5186;59.472;18.048;2022-11-20T16:53:38;1.20;99.90
10282;DHT22;5186;59.472;18.048;2022-11-20T16:56:12;1.20;99.90
10282;DHT22;5186;59.472;18.048;2022-11-20T16:58:38;1.20;99.90
10282;DHT22;5186;59.472;18.048;2022-11-20T17:01:11;1.20;99.90
10282;DHT22;5186;59.472;18.048;2022-11-20T17:03:41;1.20;99.90
10282;DHT22;5186;59.472;18.048;2022-11-20T17:06:18;1.20;99.90
10282;DHT22;5186;59.472;18.048;2022-11-20T17:08:45;1.20;99.90
10282;DHT22;5186;59.472;18.048;2022-11-20T17:11:13;1.20;99.90
10282;DHT22;5186;59.472;18.048;2022-11-20T17:13:39;1.20;99.90
10282;DHT22;5186;59.472;18.048;2022-11-20T17:16:07;1.20;99.90
10282;DHT22;5186;59.472;18.048;2022-11-20T17:18:33;1.20;99.90
10282;DHT22;5186;59.472;18.048;2022-11-20T17:20:59;1.20;99.90
10282;DHT22;5186;59.472;18.048;2022-11-20T17:23:30;1.20;99.90
10282;DHT22;5186;59.472;18.048;2022-11-20T17:26:03;1.20;99.90
10282;DHT22;5186;59.472;18.048;2022-11-20T17:28:30;1.20;99.90
10282;DHT22;5186;59.472;18.048;2022-11-20T17:31:04;1.20;99.90
10282;DHT22;5186;59.472;18.048;2022-11-20T17:33:30;1.20;99.90